Time;durP1;ratioP1;P1;durP2;ratioP2;P2;SDS_P1;SDS_P2;PMS_P1;PMS_P2;Temp;Humidity;BMP_temperature;BMP_pressure;BME280_temperature;BME280_humidity;BME280_pressure;Samples;Min_cycle;Max_cycle;Signal;HPM_P1;HPM_P2
2021/03/25 00:01:38;;;;;;;17.67;11.48;;;7.80;99.90;;;;;;5116519;28;20019;-79
2021/03/25 00:04:04;;;;;;;15.77;12.45;;;7.40;99.90;;;;;;5115928;28;20020;-79
2021/03/25 00:06:31;;;;;;;15.50;11.90;;;7.50;99.90;;;;;;5102244;28;20046;-79
2021/03/25 00:08:57;;;;;;;15.43;11.48;;;7.80;99.90;;;;;;5095839;28;20070;-79
2021/03/25 00:11:23;;;;;;;16.92;12.25;;;7.50;99.90;;;;;;5095800;28;20020;-79
2021/03/25 00:13:49;;;;;;;17.33;12.88;;;7.50;99.90;;;;;;5095598;28;20491;-79
2021/03/25 00:16:15;;;;;;;17.08;11.73;;;7.60;99.90;;;;;;5095546;28;20068;-79
2021/03/25 00:18:40;;;;;;;20.85;13.45;;;7.70;99.90;;;;;;5095502;28;20031;-77
2021/03/25 00:21:08;;;;;;;19.17;13.55;;;7.80;99.90;;;;;;5095023;28;20033;-77
2021/03/25 00:23:34;;;;;;;19.02;14.07;;;7.50;99.90;;;;;;5095437;28;20095;-79
2021/03/25 00:26:01;;;;;;;19.17;13.98;;;7.50;99.90;;;;;;5095509;28;20028;-79
2021/03/25 00:28:27;;;;;;;16.55;12.82;;;7.50;99.90;;;;;;5095627;28;20501;-79
2021/03/25 00:30:52;;;;;;;15.98;11.90;;;7.70;99.90;;;;;;5095443;28;20138;-79
2021/03/25 00:33:20;;;;;;;13.43;10.57;;;7.70;99.90;;;;;;5095036;28;20103;-79
2021/03/25 00:35:47;;;;;;;14.88;10.88;;;7.40;99.90;;;;;;5104039;28;20425;-79
2021/03/25 00:38:13;;;;;;;16.13;12.25;;;7.10;99.90;;;;;;5115854;28;20023;-79
2021/03/25 00:40:39;;;;;;;16.00;11.63;;;7.20;99.90;;;;;;5115649;28;20028;-79
2021/03/25 00:43:07;;;;;;;15.80;11.20;;;7.20;99.90;;;;;;5115259;28;20115;-79
2021/03/25 00:45:43;;;;;;;15.90;10.65;;;6.90;99.90;;;;;;5115480;28;20023;-79
2021/03/25 00:48:10;;;;;;;15.63;11.18;;;6.90;99.90;;;;;;5114093;28;20027;-79
2021/03/25 00:50:41;;;;;;;18.00;12.65;;;7.00;99.90;;;;;;5114776;28;20011;-79
2021/03/25 00:53:09;;;;;;;14.95;11.13;;;7.00;99.90;;;;;;5115503;28;20106;-79
2021/03/25 00:55:35;;;;;;;16.52;11.60;;;7.30;99.90;;;;;;5115437;28;20024;-79
2021/03/25 00:58:00;;;;;;;15.20;10.75;;;6.90;99.90;;;;;;5115466;28;20122;-79
2021/03/25 01:00:32;;;;;;;14.13;11.27;;;6.90;99.90;;;;;;5095781;28;20056;-79
2021/03/25 01:02:58;;;;;;;14.40;11.05;;;6.80;99.90;;;;;;5094342;28;20036;-79
2021/03/25 01:05:25;;;;;;;14.80;11.05;;;6.80;99.90;;;;;;5094837;28;20046;-79
2021/03/25 01:07:51;;;;;;;14.82;11.35;;;6.90;99.90;;;;;;5094820;28;20020;-79
2021/03/25 01:10:31;;;;;;;15.27;11.07;;;6.90;99.90;;;;;;5094806;28;20483;-79
2021/03/25 01:12:58;;;;;;;14.05;10.20;;;6.90;99.90;;;;;;5094522;28;20024;-79
2021/03/25 01:15:25;;;;;;;17.58;9.50;;;7.10;99.90;;;;;;5094722;28;20043;-79
2021/03/25 01:17:57;;;;;;;10.93;8.23;;;6.90;99.90;;;;;;5094144;28;20028;-79
2021/03/25 01:20:27;;;;;;;10.48;8.40;;;6.80;99.90;;;;;;5098252;28;20492;-79
2021/03/25 01:22:53;;;;;;;11.45;7.57;;;6.60;99.90;;;;;;5094408;28;20066;-79
2021/03/25 01:25:20;;;;;;;10.60;8.07;;;6.80;99.90;;;;;;5094249;28;20024;-79
2021/03/25 01:27:47;;;;;;;12.88;8.73;;;7.00;99.90;;;;;;5094310;28;20491;-79
2021/03/25 01:30:13;;;;;;;13.18;9.00;;;7.30;99.90;;;;;;5094257;28;20034;-79
2021/03/25 01:32:39;;;;;;;12.75;8.00;;;6.80;99.90;;;;;;5094263;28;20054;-79
2021/03/25 01:35:10;;;;;;;12.10;8.43;;;6.60;99.90;;;;;;5094238;28;20426;-79
2021/03/25 01:37:48;;;;;;;11.52;7.78;;;6.60;99.90;;;;;;5094327;28;20157;-79
2021/03/25 01:40:26;;;;;;;12.15;8.02;;;6.60;99.90;;;;;;5094221;28;20027;-79
2021/03/25 01:43:19;;;;;;;11.25;8.23;;;6.60;99.90;;;;;;5092857;28;20032;-79
2021/03/25 01:45:59;;;;;;;12.38;8.02;;;6.50;99.90;;;;;;5093449;28;20030;-79
2021/03/25 01:48:32;;;;;;;12.68;8.90;;;6.50;99.90;;;;;;5094082;28;20204;-79
2021/03/25 01:51:12;;;;;;;12.15;8.48;;;6.40;99.90;;;;;;5113255;28;20051;-79
2021/03/25 01:53:50;;;;;;;12.02;8.23;;;6.40;99.90;;;;;;5114119;28;20024;-79
2021/03/25 01:56:27;;;;;;;11.35;7.68;;;6.40;99.90;;;;;;5113941;28;20028;-79
2021/03/25 01:59:33;;;;;;;11.20;8.10;;;6.20;99.90;;;;;;5114168;28;20042;-79
2021/03/25 02:02:17;;;;;;;10.80;7.60;;;6.10;99.90;;;;;;5071129;28;20516;-79
2021/03/25 02:04:45;;;;;;;10.27;7.47;;;6.10;99.90;;;;;;5071244;28;20029;-79
2021/03/25 02:07:29;;;;;;;9.80;7.35;;;6.20;99.90;;;;;;5071299;28;20028;-79
2021/03/25 02:10:11;;;;;;;13.18;8.02;;;6.20;99.90;;;;;;5071063;28;20044;-79
2021/03/25 02:13:01;;;;;;;11.45;7.90;;;6.20;99.90;;;;;;5070994;28;20487;-79
2021/03/25 02:15:51;;;;;;;11.27;7.88;;;6.40;99.90;;;;;;5084604;28;20032;-79
2021/03/25 02:18:25;;;;;;;12.15;7.45;;;6.60;99.90;;;;;;5091382;28;20024;-79
2021/03/25 02:21:31;;;;;;;10.63;6.85;;;6.20;99.90;;;;;;5063711;28;20057;-79
2021/03/25 02:24:30;;;;;;;10.57;7.88;;;6.10;99.90;;;;;;4971937;28;20038;-79
2021/03/25 02:27:03;;;;;;;12.80;7.95;;;6.00;99.90;;;;;;4972183;28;20035;-79
2021/03/25 02:30:05;;;;;;;11.82;8.35;;;6.00;99.90;;;;;;4971669;28;20085;-79
2021/03/25 02:32:48;;;;;;;11.23;7.88;;;6.00;99.90;;;;;;4972061;28;20070;-79
2021/03/25 02:35:25;;;;;;;11.63;8.32;;;6.00;99.90;;;;;;4976362;28;20038;-79
2021/03/25 02:38:16;;;;;;;11.48;8.43;;;6.00;99.90;;;;;;4991341;28;20038;-79
2021/03/25 02:40:48;;;;;;;13.02;9.02;;;6.10;99.90;;;;;;4991395;28;20031;-79
2021/03/25 02:43:29;;;;;;;14.02;9.23;;;6.10;99.90;;;;;;4990754;28;20042;-79
2021/03/25 02:46:21;;;;;;;11.23;8.48;;;6.10;99.90;;;;;;4991073;28;20046;-79
2021/03/25 02:48:49;;;;;;;13.18;8.48;;;6.20;99.90;;;;;;4990974;28;20537;-79
2021/03/25 02:51:26;;;;;;;13.10;8.65;;;6.20;99.90;;;;;;4991081;28;20117;-79
2021/03/25 02:53:52;;;;;;;13.23;8.35;;;6.50;99.90;;;;;;4991187;28;20030;-79
2021/03/25 02:56:29;;;;;;;16.55;8.88;;;6.20;99.90;;;;;;4991141;28;20030;-79
2021/03/25 02:59:03;;;;;;;11.18;7.93;;;6.20;99.90;;;;;;5083975;28;20035;-79
2021/03/25 03:01:33;;;;;;;15.07;8.20;;;6.20;99.90;;;;;;5113160;28;20016;-79
2021/03/25 03:04:09;;;;;;;10.80;7.75;;;6.20;99.90;;;;;;5112738;28;20104;-79
2021/03/25 03:06:41;;;;;;;12.52;7.80;;;6.20;99.90;;;;;;5112785;28;20026;-79
2021/03/25 03:09:11;;;;;;;13.10;8.82;;;6.20;99.90;;;;;;5112745;28;20085;-79
2021/03/25 03:11:41;;;;;;;11.35;8.40;;;6.20;99.90;;;;;;5112944;28;20102;-79
2021/03/25 03:14:18;;;;;;;12.93;8.85;;;6.20;99.90;;;;;;5101911;28;20499;-79
2021/03/25 03:16:50;;;;;;;13.55;8.82;;;6.20;99.90;;;;;;5092447;28;20060;-79
2021/03/25 03:19:27;;;;;;;13.27;8.70;;;6.20;99.90;;;;;;5092344;28;20036;-79
2021/03/25 03:21:57;;;;;;;13.43;8.00;;;6.20;99.90;;;;;;5092064;28;20028;-79
2021/03/25 03:24:24;;;;;;;12.82;7.82;;;6.40;99.90;;;;;;5092281;28;20024;-79
2021/03/25 03:27:06;;;;;;;12.40;8.20;;;6.20;99.90;;;;;;5092183;28;20365;-79
2021/03/25 03:29:32;;;;;;;11.13;8.00;;;6.30;99.90;;;;;;5092583;28;20098;-79
2021/03/25 03:32:13;;;;;;;12.30;7.45;;;6.10;99.90;;;;;;5092291;28;20563;-79
2021/03/25 03:34:43;;;;;;;10.40;7.35;;;6.10;99.90;;;;;;5092336;28;20395;-79
2021/03/25 03:37:37;;;;;;;13.40;8.15;;;6.10;99.90;;;;;;5092332;28;20028;-79
2021/03/25 03:40:09;;;;;;;11.27;7.53;;;6.10;99.90;;;;;;5089596;28;20071;-79
2021/03/25 03:42:38;;;;;;;10.80;7.55;;;6.20;99.90;;;;;;5092052;28;20024;-79
2021/03/25 03:45:04;;;;;;;11.40;7.80;;;6.10;99.90;;;;;;5111351;28;20035;-79
2021/03/25 03:47:33;;;;;;;12.95;7.47;;;6.10;99.90;;;;;;5112637;28;20016;-79
2021/03/25 03:50:13;;;;;;;12.68;7.72;;;6.10;99.90;;;;;;5112526;28;20023;-79
2021/03/25 03:52:39;;;;;;;13.52;7.57;;;6.10;99.90;;;;;;5112621;28;20019;-79
2021/03/25 03:55:08;;;;;;;10.57;7.57;;;6.20;99.90;;;;;;5112601;28;20059;-79
2021/03/25 03:57:43;;;;;;;10.63;7.22;;;6.20;99.90;;;;;;5112750;28;20023;-79
2021/03/25 04:00:21;;;;;;;9.32;7.10;;;6.20;99.90;;;;;;5071939;28;20537;-79
2021/03/25 04:03:36;;;;;;;8.90;6.65;;;6.20;99.90;;;;;;5071984;28;20115;-79
2021/03/25 04:06:10;;;;;;;9.32;6.72;;;6.20;99.90;;;;;;5062989;28;20118;-79
2021/03/25 04:08:58;;;;;;;9.27;6.82;;;6.20;99.90;;;;;;5071896;28;20025;-79
2021/03/25 04:11:39;;;;;;;12.00;7.47;;;6.20;99.90;;;;;;5071530;28;20037;-79
2021/03/25 04:14:20;;;;;;;9.20;6.97;;;6.20;99.90;;;;;;5103434;28;20483;-79
2021/03/25 04:16:47;;;;;;;9.73;6.75;;;6.10;99.90;;;;;;5112359;28;20043;-79
2021/03/25 04:19:19;;;;;;;8.10;6.00;;;6.10;99.90;;;;;;5115197;28;20043;-79
2021/03/25 04:21:52;;;;;;;11.30;6.93;;;6.10;99.90;;;;;;5098034;27;20032;-79
2021/03/25 04:24:22;;;;;;;9.00;6.32;;;6.10;99.90;;;;;;5093718;28;20107;-79
2021/03/25 04:27:10;;;;;;;10.35;6.88;;;6.40;99.90;;;;;;5095812;28;20063;-79
2021/03/25 04:29:51;;;;;;;13.27;7.30;;;5.90;99.90;;;;;;5095593;28;20513;-79
2021/03/25 04:32:17;;;;;;;12.30;6.10;;;6.30;99.90;;;;;;5095208;28;20024;-79
2021/03/25 04:34:43;;;;;;;8.75;6.47;;;6.40;99.90;;;;;;5095661;28;20421;-79
2021/03/25 04:37:09;;;;;;;11.20;7.10;;;6.00;99.90;;;;;;5095261;28;20028;-79
2021/03/25 04:39:39;;;;;;;11.57;7.70;;;6.30;99.90;;;;;;5095174;28;20024;-79
2021/03/25 04:42:06;;;;;;;10.50;7.72;;;6.00;99.90;;;;;;5095366;28;20043;-79
2021/03/25 04:44:59;;;;;;;11.80;7.78;;;5.90;99.90;;;;;;5095056;28;20034;-79
2021/03/25 04:47:32;;;;;;;10.95;6.95;;;6.40;99.90;;;;;;5095129;28;20052;-79
2021/03/25 04:50:21;;;;;;;12.55;8.10;;;5.90;99.90;;;;;;5095178;28;20020;-79
2021/03/25 04:52:47;;;;;;;8.68;6.35;;;5.70;99.90;;;;;;5095242;28;20020;-79
2021/03/25 04:55:23;;;;;;;9.63;6.45;;;6.00;99.90;;;;;;5094776;28;20056;-79
2021/03/25 04:58:01;;;;;;;10.23;6.60;;;5.50;99.90;;;;;;5095128;28;20024;-79
2021/03/25 05:00:35;;;;;;;10.00;6.85;;;5.50;99.90;;;;;;5093465;28;20020;-79
2021/03/25 05:03:03;;;;;;;12.57;6.63;;;5.40;99.90;;;;;;5094788;28;20031;-79
2021/03/25 05:05:31;;;;;;;8.90;7.00;;;5.30;99.90;;;;;;5094772;28;20016;-79
2021/03/25 05:08:11;;;;;;;8.25;6.32;;;5.30;99.90;;;;;;5094509;28;20099;-79
2021/03/25 05:11:05;;;;;;;11.13;6.63;;;5.20;99.90;;;;;;5093537;28;20020;-79
2021/03/25 05:13:33;;;;;;;11.13;7.03;;;5.10;99.90;;;;;;5089714;28;20036;-79
2021/03/25 05:16:08;;;;;;;10.90;7.00;;;5.30;99.90;;;;;;5094581;28;20142;-79
2021/03/25 05:18:37;;;;;;;9.75;7.10;;;5.30;99.90;;;;;;5094638;28;20431;-79
2021/03/25 05:21:07;;;;;;;9.27;6.72;;;5.60;99.90;;;;;;5094260;28;20047;-79
2021/03/25 05:24:05;;;;;;;10.85;7.07;;;5.10;99.90;;;;;;5094233;28;20025;-79
2021/03/25 05:26:40;;;;;;;12.27;7.95;;;5.20;99.90;;;;;;5071751;28;20181;-79
2021/03/25 05:29:07;;;;;;;11.77;7.97;;;5.40;99.90;;;;;;5051992;28;20032;-79
2021/03/25 05:31:35;;;;;;;10.77;7.28;;;5.80;99.90;;;;;;5051844;28;20075;-79
2021/03/25 05:34:05;;;;;;;11.63;7.63;;;5.90;99.90;;;;;;5051824;28;20507;-79
2021/03/25 05:36:31;;;;;;;10.27;7.30;;;5.10;99.90;;;;;;5051584;28;20128;-79
2021/03/25 05:38:58;;;;;;;10.68;7.22;;;5.70;99.90;;;;;;5051487;28;20036;-79
2021/03/25 05:41:42;;;;;;;11.13;7.70;;;5.50;99.90;;;;;;5056473;28;20435;-79
2021/03/25 05:44:29;;;;;;;12.00;7.60;;;5.10;99.90;;;;;;5071578;28;20029;-79
2021/03/25 05:47:24;;;;;;;9.82;6.93;;;5.20;99.90;;;;;;5070841;28;20097;-79
2021/03/25 05:50:31;;;;;;;11.27;7.22;;;5.30;99.90;;;;;;4992431;28;20114;-79
2021/03/25 05:53:05;;;;;;;10.50;7.50;;;5.10;99.90;;;;;;4991663;28;20038;-79
2021/03/25 05:55:57;;;;;;;13.38;7.82;;;5.20;99.90;;;;;;4992448;28;20053;-79
2021/03/25 05:58:37;;;;;;;12.73;7.60;;;5.30;99.90;;;;;;4992351;28;20033;-79
2021/03/25 06:01:18;;;;;;;11.88;7.45;;;5.30;99.90;;;;;;4980662;28;20034;-82
2021/03/25 06:03:59;;;;;;;12.65;7.97;;;5.40;99.90;;;;;;5024585;28;20037;-79
2021/03/25 06:06:55;;;;;;;13.25;7.95;;;5.50;99.90;;;;;;5046425;28;20029;-79
2021/03/25 06:09:20;;;;;;;11.32;8.20;;;5.50;99.90;;;;;;5048781;28;20025;-79
2021/03/25 06:12:08;;;;;;;13.13;8.40;;;6.10;99.90;;;;;;5047170;28;20048;-79
2021/03/25 06:15:01;;;;;;;10.23;7.85;;;5.50;99.90;;;;;;5050324;28;20040;-79
2021/03/25 06:18:00;;;;;;;12.00;8.27;;;5.10;99.90;;;;;;5039053;28;20052;-79
2021/03/25 06:20:51;;;;;;;9.75;8.10;;;5.50;99.90;;;;;;5029804;28;20462;-79
2021/03/25 06:23:41;;;;;;;11.55;8.60;;;5.50;99.90;;;;;;5030185;28;20037;-79
2021/03/25 06:26:28;;;;;;;11.50;8.02;;;5.60;99.90;;;;;;5028009;28;20491;-79
2021/03/25 06:29:02;;;;;;;12.57;8.73;;;5.70;99.90;;;;;;5098516;28;20051;-79
2021/03/25 06:31:46;;;;;;;13.98;8.45;;;6.20;99.90;;;;;;5102565;28;20101;-79
2021/03/25 06:34:30;;;;;;;18.65;9.02;;;6.20;99.90;;;;;;5092868;28;20031;-79
2021/03/25 06:37:14;;;;;;;12.38;7.85;;;6.40;99.90;;;;;;5107073;28;20024;-79
2021/03/25 06:39:49;;;;;;;15.63;8.43;;;6.60;99.90;;;;;;5109674;28;20424;-79
2021/03/25 06:42:36;;;;;;;13.50;8.38;;;6.90;99.90;;;;;;5111962;28;20020;-79
2021/03/25 06:45:29;;;;;;;11.73;7.45;;;7.10;99.90;;;;;;5096223;28;20024;-79
2021/03/25 06:48:04;;;;;;;12.10;7.53;;;7.20;99.90;;;;;;5091470;28;20028;-81
2021/03/25 06:50:37;;;;;;;10.88;7.40;;;7.80;99.90;;;;;;5086781;28;20073;-79
2021/03/25 06:53:27;;;;;;;15.15;8.52;;;7.80;99.90;;;;;;5087572;28;20047;-79
2021/03/25 06:56:04;;;;;;;13.63;8.48;;;7.60;99.90;;;;;;5088091;28;20755;-78
2021/03/25 06:59:06;;;;;;;11.23;7.95;;;7.70;99.90;;;;;;5092241;28;20069;-78
2021/03/25 07:01:40;;;;;;;12.10;6.97;;;8.00;99.90;;;;;;5092474;28;20024;-78
2021/03/25 07:04:40;;;;;;;16.70;7.75;;;8.60;99.90;;;;;;5094278;28;20490;-78
2021/03/25 07:07:14;;;;;;;12.68;7.63;;;8.30;99.90;;;;;;5067475;28;20044;-78
2021/03/25 07:09:40;;;;;;;12.05;7.72;;;8.40;99.90;;;;;;5074773;28;20032;-78
2021/03/25 07:12:16;;;;;;;12.20;7.82;;;8.50;99.90;;;;;;5070730;28;20127;-79
2021/03/25 07:14:44;;;;;;;12.90;7.32;;;8.70;99.90;;;;;;5068790;28;20039;-79
2021/03/25 07:17:14;;;;;;;12.18;7.97;;;8.90;99.90;;;;;;5081591;28;20067;-79
2021/03/25 07:19:44;;;;;;;13.85;8.65;;;9.00;99.90;;;;;;5087796;28;20051;-79
2021/03/25 07:22:23;;;;;;;13.15;8.10;;;9.00;99.90;;;;;;5068210;28;20051;-79
2021/03/25 07:24:51;;;;;;;15.20;8.13;;;9.10;99.90;;;;;;5070112;28;20476;-79
2021/03/25 07:27:23;;;;;;;16.48;8.20;;;9.00;99.90;;;;;;5069945;28;20033;-79
2021/03/25 07:30:13;;;;;;;13.77;8.15;;;9.20;99.90;;;;;;5052999;28;20468;-79
2021/03/25 07:32:53;;;;;;;14.23;8.65;;;9.40;99.90;;;;;;5069552;28;20020;-79
2021/03/25 07:35:43;;;;;;;12.45;8.30;;;9.70;99.90;;;;;;5070004;28;20032;-80
2021/03/25 07:38:26;;;;;;;16.17;8.70;;;9.80;99.90;;;;;;5069456;28;20028;-80
2021/03/25 07:41:15;;;;;;;18.05;9.25;;;10.00;99.90;;;;;;5069514;28;20140;-79
2021/03/25 07:44:07;;;;;;;13.70;8.57;;;10.10;99.90;;;;;;5088862;28;20036;-79
2021/03/25 07:46:48;;;;;;;17.75;10.45;;;10.20;99.90;;;;;;5092191;28;20024;-79
2021/03/25 07:49:17;;;;;;;15.80;9.77;;;10.30;99.90;;;;;;5091519;28;20095;-79
2021/03/25 07:51:46;;;;;;;16.35;10.20;;;10.30;99.90;;;;;;5091917;28;20020;-79
2021/03/25 07:54:16;;;;;;;17.52;9.57;;;10.30;99.90;;;;;;5095578;28;20077;-79
2021/03/25 07:56:57;;;;;;;19.10;10.02;;;10.40;99.90;;;;;;5096548;28;20020;-81
2021/03/25 07:59:34;;;;;;;15.70;9.18;;;10.50;99.90;;;;;;5096164;28;20023;-79
2021/03/25 08:01:59;;;;;;;14.32;8.93;;;10.50;99.90;;;;;;5108313;28;20020;-79
2021/03/25 08:04:31;;;;;;;18.92;10.63;;;10.60;99.90;;;;;;5115728;28;20035;-78
2021/03/25 08:07:06;;;;;;;21.35;9.88;;;10.60;99.90;;;;;;5116322;28;20027;-79
2021/03/25 08:09:53;;;;;;;17.23;10.70;;;10.90;99.90;;;;;;5116506;28;20012;-79
2021/03/25 08:12:28;;;;;;;15.13;9.43;;;10.90;99.90;;;;;;5116358;28;20387;-80
2021/03/25 08:15:05;;;;;;;16.40;9.68;;;11.00;99.90;;;;;;5116083;28;20026;-80
2021/03/25 08:17:42;;;;;;;13.73;9.23;;;10.90;99.90;;;;;;5116863;28;20023;-79
2021/03/25 08:20:29;;;;;;;17.05;9.30;;;10.90;99.90;;;;;;5112311;28;20523;-79
2021/03/25 08:23:48;;;;;;;17.90;11.50;;;10.80;99.90;;;;;;5095278;28;20024;-79
2021/03/25 08:26:35;;;;;;;18.00;11.05;;;10.90;99.90;;;;;;5073097;28;20028;-79
2021/03/25 08:29:15;;;;;;;15.20;10.18;;;11.00;99.90;;;;;;5073129;28;20082;-79
2021/03/25 08:32:21;;;;;;;15.15;9.30;;;11.10;99.90;;;;;;5072732;28;20033;-79
2021/03/25 08:35:02;;;;;;;20.92;9.48;;;11.10;99.90;;;;;;5062119;28;20045;-79
2021/03/25 08:37:36;;;;;;;16.73;10.85;;;11.20;99.90;;;;;;5073110;28;20067;-80
2021/03/25 08:40:40;;;;;;;17.02;9.93;;;11.40;99.90;;;;;;5072934;28;20111;-79
2021/03/25 08:43:17;;;;;;;12.35;8.90;;;11.50;99.90;;;;;;4993490;28;20114;-79
2021/03/25 08:46:10;;;;;;;18.30;8.52;;;11.60;99.90;;;;;;4992785;28;20093;-79
2021/03/25 08:48:46;;;;;;;18.50;8.90;;;11.70;99.90;;;;;;4993483;28;20495;-79
2021/03/25 08:51:32;;;;;;;16.83;9.27;;;11.60;99.90;;;;;;4992950;28;20053;-79
2021/03/25 08:54:09;;;;;;;17.20;9.07;;;11.60;99.90;;;;;;4993265;28;20077;-79
2021/03/25 08:56:43;;;;;;;14.68;8.38;;;11.90;99.90;;;;;;5010570;28;20037;-79
2021/03/25 08:59:20;;;;;;;13.82;8.73;;;12.10;99.90;;;;;;5032537;28;20053;-79
2021/03/25 09:01:59;;;;;;;13.90;8.57;;;12.30;99.90;;;;;;5032253;28;20120;-79
2021/03/25 09:04:30;;;;;;;13.75;9.30;;;12.50;99.90;;;;;;5031977;28;20029;-79
2021/03/25 09:06:56;;;;;;;14.98;8.90;;;13.00;99.90;;;;;;5032512;28;20079;-79
2021/03/25 09:09:47;;;;;;;11.95;8.95;;;13.30;99.90;;;;;;5032626;28;20021;-79
2021/03/25 09:12:26;;;;;;;14.27;8.23;;;13.60;99.90;;;;;;5032446;28;20034;-79
2021/03/25 09:14:51;;;;;;;12.32;7.60;;;13.90;99.90;;;;;;5032092;28;20098;-79
2021/03/25 09:17:21;;;;;;;16.45;9.48;;;14.10;99.90;;;;;;5032502;28;20092;-79
2021/03/25 09:19:50;;;;;;;11.68;8.55;;;14.00;99.90;;;;;;5091695;28;20071;-79
2021/03/25 09:22:48;;;;;;;14.65;10.48;;;14.00;99.90;;;;;;5094544;28;20039;-79
2021/03/25 09:25:36;;;;;;;13.00;9.38;;;14.10;99.90;;;;;;5094383;28;20107;-79
2021/03/25 09:28:18;;;;;;;12.85;8.30;;;14.60;99.90;;;;;;5094469;28;20541;-79
2021/03/25 09:31:11;;;;;;;13.10;8.50;;;15.10;99.90;;;;;;5093997;28;20139;-79
2021/03/25 09:33:48;;;;;;;11.88;8.70;;;17.60;99.90;;;;;;5094278;28;20105;-79
2021/03/25 09:36:16;;;;;;;12.75;8.82;;;22.40;99.90;;;;;;5094297;28;20023;-79
2021/03/25 09:39:03;;;;;;;13.77;8.88;;;25.60;99.90;;;;;;5094287;28;20035;-79
2021/03/25 09:41:29;;;;;;;11.13;8.43;;;28.10;99.90;;;;;;5071855;28;20037;-79
2021/03/25 09:44:10;;;;;;;13.43;8.73;;;29.20;99.90;;;;;;5054391;28;20151;-80
2021/03/25 09:46:53;;;;;;;11.60;9.38;;;29.90;99.90;;;;;;5071781;28;20071;-79
2021/03/25 09:49:24;;;;;;;13.02;9.60;;;30.60;99.90;;;;;;5071741;28;20017;-79
2021/03/25 09:52:16;;;;;;;13.52;9.60;;;30.20;99.90;;;;;;5071221;28;20039;-79
2021/03/25 09:54:57;;;;;;;13.93;9.27;;;30.70;99.90;;;;;;5054901;28;20074;-79
2021/03/25 09:57:32;;;;;;;13.77;9.90;;;31.40;99.90;;;;;;5071397;28;20043;-79
2021/03/25 10:00:06;;;;;;;12.88;9.70;;;31.60;99.90;;;;;;5071057;28;20033;-79
2021/03/25 10:02:40;;;;;;;11.38;9.52;;;32.10;99.90;;;;;;5071141;28;20123;-79
2021/03/25 10:05:36;;;;;;;14.02;9.45;;;32.20;99.90;;;;;;5071130;28;20066;-79
2021/03/25 10:08:08;;;;;;;13.38;9.80;;;32.60;99.90;;;;;;5071309;28;20051;-79
2021/03/25 10:10:40;;;;;;;11.30;9.45;;;32.70;99.90;;;;;;5071034;28;20029;-79
2021/03/25 10:13:18;;;;;;;12.18;9.65;;;33.20;99.90;;;;;;5070695;28;20562;-79
2021/03/25 10:16:32;;;;;;;12.48;9.50;;;33.30;99.90;;;;;;5070347;28;20066;-79
2021/03/25 10:18:59;;;;;;;10.73;9.63;;;31.70;99.90;;;;;;5017434;28;20561;-79
2021/03/25 10:21:43;;;;;;;12.35;8.95;;;31.70;99.90;;;;;;5031029;28;20029;-79
2021/03/25 10:24:34;;;;;;;11.60;8.98;;;33.90;99.90;;;;;;5031028;28;20038;-79
2021/03/25 10:27:33;;;;;;;10.88;9.65;;;34.20;99.90;;;;;;5025838;28;20033;-79
2021/03/25 10:30:06;;;;;;;14.27;9.68;;;32.60;99.90;;;;;;5030977;28;20033;-79
2021/03/25 10:32:36;;;;;;;10.77;9.32;;;32.90;99.90;;;;;;5030881;28;20111;-79
2021/03/25 10:35:06;;;;;;;13.60;10.18;;;33.80;99.90;;;;;;5030843;28;20517;-79
2021/03/25 10:37:42;;;;;;;12.52;9.05;;;32.10;99.90;;;;;;5030937;28;20044;-79
2021/03/25 10:40:08;;;;;;;12.07;10.07;;;33.30;99.90;;;;;;5030662;28;20104;-79
2021/03/25 10:42:39;;;;;;;15.75;9.25;;;33.30;99.90;;;;;;5030438;28;20521;-79
2021/03/25 10:45:23;;;;;;;13.95;10.10;;;33.40;99.90;;;;;;5030462;28;20037;-79
2021/03/25 10:48:07;;;;;;;11.60;9.38;;;32.70;99.90;;;;;;5030394;28;20037;-79
2021/03/25 10:51:13;;;;;;;13.63;9.82;;;34.20;99.90;;;;;;5030577;28;20033;-79
2021/03/25 10:53:51;;;;;;;11.93;9.85;;;34.90;99.90;;;;;;5030508;28;20486;-79
2021/03/25 10:56:27;;;;;;;12.75;10.18;;;35.00;99.90;;;;;;5092582;28;20434;-79
2021/03/25 10:59:02;;;;;;;15.77;10.45;;;35.10;99.90;;;;;;5092723;28;20069;-79
2021/03/25 11:01:31;;;;;;;12.52;9.88;;;37.30;99.90;;;;;;5092978;28;20099;-79
2021/03/25 11:03:58;;;;;;;11.15;9.05;;;36.70;99.90;;;;;;5092573;28;20114;-79
2021/03/25 11:06:30;;;;;;;12.30;10.13;;;36.30;99.90;;;;;;5092647;28;20039;-79
2021/03/25 11:09:04;;;;;;;12.18;9.45;;;37.50;99.90;;;;;;5092456;28;20020;-79
2021/03/25 11:11:29;;;;;;;12.75;9.02;;;38.00;99.90;;;;;;5092367;28;20031;-79
2021/03/25 11:14:01;;;;;;;10.40;8.13;;;39.10;99.90;;;;;;5092505;28;20028;-79
2021/03/25 11:16:27;;;;;;;11.68;9.13;;;38.80;99.90;;;;;;5092478;28;20027;-79
2021/03/25 11:19:07;;;;;;;10.18;8.30;;;37.80;99.90;;;;;;5092557;28;20021;-79
2021/03/25 11:21:37;;;;;;;12.77;9.52;;;39.20;99.90;;;;;;5092555;28;20115;-79
2021/03/25 11:24:09;;;;;;;13.02;9.60;;;39.10;99.90;;;;;;5092474;28;20503;-79
2021/03/25 11:26:35;;;;;;;12.25;9.23;;;36.80;99.90;;;;;;5093335;28;20024;-79
2021/03/25 11:29:04;;;;;;;10.57;8.57;;;36.90;99.90;;;;;;5099082;28;20542;-79
2021/03/25 11:31:31;;;;;;;11.00;8.07;;;36.60;99.90;;;;;;5099319;28;20050;-79
2021/03/25 11:33:57;;;;;;;9.32;8.25;;;37.60;99.90;;;;;;5099174;28;20024;-79
2021/03/25 11:36:34;;;;;;;12.07;8.25;;;38.80;99.90;;;;;;5099019;28;20024;-79
2021/03/25 11:39:24;;;;;;;10.27;8.77;;;38.70;99.90;;;;;;5098986;28;20024;-79
2021/03/25 11:41:53;;;;;;;9.35;8.05;;;40.00;99.90;;;;;;5099181;28;20092;-79
2021/03/25 11:44:36;;;;;;;10.85;8.60;;;38.40;99.90;;;;;;5098881;28;20115;-79
2021/03/25 11:47:21;;;;;;;8.73;7.82;;;40.00;99.90;;;;;;5097968;28;20026;-79
2021/03/25 11:49:46;;;;;;;10.18;7.68;;;38.90;99.90;;;;;;5098227;28;20435;-79
2021/03/25 11:52:13;;;;;;;9.00;7.30;;;37.70;99.90;;;;;;5099690;28;20044;-79
2021/03/25 11:54:44;;;;;;;9.40;8.05;;;38.30;99.90;;;;;;5099785;28;20376;-79
2021/03/25 11:57:27;;;;;;;9.00;8.10;;;38.80;99.90;;;;;;5099409;28;20031;-79
2021/03/25 12:00:24;;;;;;;10.48;8.77;;;38.30;99.90;;;;;;5098842;28;20521;-79
2021/03/25 12:02:55;;;;;;;12.85;9.05;;;38.30;99.90;;;;;;5094114;28;20381;-79
2021/03/25 12:05:27;;;;;;;10.80;8.95;;;38.80;99.90;;;;;;5098910;28;20032;-79
2021/03/25 12:08:25;;;;;;;10.10;8.25;;;39.70;99.90;;;;;;5098928;28;20027;-79
2021/03/25 12:11:17;;;;;;;10.57;8.45;;;38.50;99.90;;;;;;5094407;28;20028;-79
2021/03/25 12:13:44;;;;;;;10.48;8.38;;;38.50;99.90;;;;;;5097601;28;20431;-79
2021/03/25 12:16:11;;;;;;;12.85;7.97;;;38.50;99.90;;;;;;5097580;28;20550;-79
2021/03/25 12:18:42;;;;;;;10.63;8.02;;;37.10;99.90;;;;;;5098698;28;20048;-79
2021/03/25 12:21:10;;;;;;;10.23;8.77;;;35.90;99.90;;;;;;5098324;28;20048;-79
2021/03/25 12:23:39;;;;;;;13.18;9.30;;;35.20;99.90;;;;;;5098474;28;20023;-79
2021/03/25 12:26:15;;;;;;;10.35;8.50;;;34.50;99.90;;;;;;5098633;28;20024;-79
2021/03/25 12:28:41;;;;;;;9.90;8.77;;;34.80;99.90;;;;;;5098665;28;20058;-79
2021/03/25 12:31:07;;;;;;;11.95;9.05;;;34.80;99.90;;;;;;5098881;28;20417;-79
2021/03/25 12:33:36;;;;;;;11.23;8.30;;;35.10;99.90;;;;;;5098481;28;20362;-79
2021/03/25 12:36:04;;;;;;;10.82;9.55;;;34.50;99.90;;;;;;5094859;28;20856;-79
2021/03/25 12:38:31;;;;;;;9.82;8.45;;;34.40;99.90;;;;;;5086318;28;20519;-79
2021/03/25 12:40:57;;;;;;;9.82;8.38;;;34.50;99.90;;;;;;5091654;28;20028;-79
2021/03/25 12:43:28;;;;;;;9.75;7.45;;;34.30;99.90;;;;;;5093139;28;20068;-79
2021/03/25 12:45:57;;;;;;;9.32;6.90;;;34.70;99.90;;;;;;5091550;28;20041;-79
2021/03/25 12:48:27;;;;;;;9.45;7.35;;;35.20;99.90;;;;;;5091654;28;20012;-79
2021/03/25 12:50:53;;;;;;;8.25;6.15;;;34.20;99.90;;;;;;5088832;28;20519;-79
2021/03/25 12:53:20;;;;;;;8.77;6.70;;;34.00;99.90;;;;;;5102045;28;20483;-79
2021/03/25 12:55:45;;;;;;;9.55;6.53;;;34.80;99.90;;;;;;5093131;28;20032;-79
2021/03/25 12:58:25;;;;;;;7.05;6.22;;;34.40;99.90;;;;;;5085928;28;20031;-79
2021/03/25 13:00:52;;;;;;;7.10;5.90;;;35.00;99.90;;;;;;5083365;28;20419;-79
2021/03/25 13:03:17;;;;;;;7.47;6.60;;;34.70;99.90;;;;;;5092587;28;20012;-79
2021/03/25 13:05:43;;;;;;;8.05;6.72;;;33.40;99.90;;;;;;5100950;28;20038;-80
2021/03/25 13:08:10;;;;;;;7.97;6.35;;;32.60;99.90;;;;;;5086051;28;20016;-79
2021/03/25 13:10:37;;;;;;;9.30;5.20;;;32.10;99.90;;;;;;5084938;28;20020;-79
2021/03/25 13:13:04;;;;;;;8.00;5.18;;;31.70;99.90;;;;;;5093486;28;20020;-79
2021/03/25 13:15:30;;;;;;;8.77;5.72;;;31.30;99.90;;;;;;5096917;28;20019;-79
2021/03/25 13:17:56;;;;;;;7.45;6.25;;;31.50;99.90;;;;;;5094149;28;20032;-79
2021/03/25 13:20:24;;;;;;;8.10;7.03;;;31.10;99.90;;;;;;5094175;28;20057;-79
2021/03/25 13:22:51;;;;;;;9.50;7.28;;;31.00;99.90;;;;;;5088024;28;20019;-79
2021/03/25 13:25:33;;;;;;;10.23;7.43;;;31.50;99.90;;;;;;5083638;28;20020;-79
2021/03/25 13:27:59;;;;;;;8.95;6.95;;;30.90;99.90;;;;;;5087439;28;20487;-79
2021/03/25 13:30:25;;;;;;;8.27;7.38;;;30.00;99.90;;;;;;5094846;28;20099;-79